Time;durP1;ratioP1;P1;durP2;ratioP2;P2;SDS_P1;SDS_P2;PMS_P1;PMS_P2;Temp;Humidity;BMP_temperature;BMP_pressure;BME280_temperature;BME280_humidity;BME280_pressure;Samples;Min_cycle;Max_cycle;Signal;HPM_P1;HPM_P2
2023/02/08 00:00:49;;;;;;;9.18;5.38;;;-2.70;98.00;;;;;;5035117;28;20501;-85
2023/02/08 00:03:16;;;;;;;7.53;3.23;;;-2.70;98.00;;;;;;5038751;28;20225;-85
2023/02/08 00:05:43;;;;;;;9.33;3.83;;;-2.80;98.00;;;;;;5031354;28;20531;-85
2023/02/08 00:08:10;;;;;;;5.30;3.33;;;-2.80;98.00;;;;;;5016209;28;20527;-85
2023/02/08 00:10:39;;;;;;;6.57;3.22;;;-2.90;98.00;;;;;;5018506;28;20218;-85
2023/02/08 00:13:06;;;;;;;4.40;2.92;;;-2.90;98.00;;;;;;5018906;28;20213;-85
2023/02/08 00:15:33;;;;;;;4.20;2.67;;;-2.90;98.00;;;;;;5018455;28;20237;-85
2023/02/08 00:18:00;;;;;;;3.47;2.77;;;-2.80;98.00;;;;;;5019116;28;20209;-84
2023/02/08 00:20:27;;;;;;;4.80;4.07;;;-2.80;98.00;;;;;;5018938;28;21055;-85
2023/02/08 00:22:54;;;;;;;6.43;3.23;;;-2.70;98.00;;;;;;5018257;28;20480;-85
2023/02/08 00:25:21;;;;;;;8.30;4.13;;;-2.60;98.00;;;;;;5018434;28;20498;-84
2023/02/08 00:27:49;;;;;;;6.97;3.70;;;-2.70;98.00;;;;;;5019330;28;20202;-84
2023/02/08 00:30:16;;;;;;;3.53;2.37;;;-2.70;98.00;;;;;;5018875;28;20218;-84
2023/02/08 00:32:43;;;;;;;6.03;3.60;;;-2.60;98.00;;;;;;5017681;28;20494;-84
2023/02/08 00:35:10;;;;;;;9.73;4.23;;;-2.60;98.00;;;;;;5017832;28;20214;-85
2023/02/08 00:37:37;;;;;;;7.20;3.90;;;-2.50;98.00;;;;;;5034393;28;20443;-85
2023/02/08 00:40:05;;;;;;;3.37;2.27;;;-2.30;98.00;;;;;;5038788;28;20490;-85
2023/02/08 00:42:32;;;;;;;9.50;5.30;;;-2.40;98.00;;;;;;5038753;28;20456;-85
2023/02/08 00:45:01;;;;;;;7.13;4.10;;;-2.50;98.00;;;;;;5038581;28;20587;-85
2023/02/08 00:47:28;;;;;;;5.37;2.73;;;-2.60;98.00;;;;;;5038905;28;20456;-85
2023/02/08 00:49:55;;;;;;;4.63;3.17;;;-2.60;98.00;;;;;;5038560;28;20465;-85
2023/02/08 00:52:22;;;;;;;7.17;3.83;;;-2.60;98.00;;;;;;5038474;28;20300;-85
2023/02/08 00:54:49;;;;;;;10.30;3.88;;;-2.60;98.00;;;;;;5038587;28;20464;-85
2023/02/08 00:57:16;;;;;;;6.05;3.50;;;-2.70;98.00;;;;;;5028169;28;20231;-84
2023/02/08 00:59:43;;;;;;;8.63;3.83;;;-2.70;98.00;;;;;;5017371;28;20268;-85
2023/02/08 01:02:12;;;;;;;6.60;3.53;;;-2.80;98.00;;;;;;5015832;28;20707;-84
2023/02/08 01:04:39;;;;;;;4.53;2.80;;;-2.70;98.00;;;;;;5016379;28;20836;-84
2023/02/08 01:07:06;;;;;;;9.23;3.23;;;-2.80;98.00;;;;;;5020420;28;20475;-84
2023/02/08 01:09:34;;;;;;;5.63;3.20;;;-2.90;98.00;;;;;;5022360;28;20462;-84
2023/02/08 01:12:01;;;;;;;8.35;3.75;;;-2.90;98.00;;;;;;5022034;28;20213;-84
2023/02/08 01:14:28;;;;;;;6.28;3.35;;;-2.80;98.00;;;;;;5022382;28;20723;-84
2023/02/08 01:16:55;;;;;;;3.17;1.95;;;-2.90;98.00;;;;;;5021627;28;20221;-84
2023/02/08 01:19:23;;;;;;;5.28;2.65;;;-3.00;98.00;;;;;;5022584;28;20673;-84
2023/02/08 01:21:50;;;;;;;8.00;3.17;;;-3.00;98.00;;;;;;5016683;28;20233;-85
2023/02/08 01:24:18;;;;;;;3.10;2.40;;;-3.00;98.00;;;;;;5014877;28;20255;-84
2023/02/08 01:26:45;;;;;;;3.22;3.10;;;-3.10;98.00;;;;;;5012433;28;21012;-84
2023/02/08 01:29:12;;;;;;;4.82;2.60;;;-3.20;98.00;;;;;;5013524;28;20296;-84
2023/02/08 01:31:41;;;;;;;4.22;2.58;;;-3.20;98.00;;;;;;5013080;28;20486;-84
2023/02/08 01:34:09;;;;;;;4.30;2.53;;;-3.20;98.00;;;;;;5013202;28;20209;-84
2023/02/08 01:36:38;;;;;;;7.47;3.13;;;-3.20;98.00;;;;;;5012226;28;20496;-84
2023/02/08 01:39:07;;;;;;;4.90;2.55;;;-3.20;98.00;;;;;;5013117;28;20206;-84
2023/02/08 01:41:36;;;;;;;4.15;2.80;;;-3.20;98.00;;;;;;5012791;28;20222;-84
2023/02/08 01:44:29;;;;;;;5.32;2.63;;;-3.30;98.00;;;;;;5013164;28;20206;-84
2023/02/08 01:46:56;;;;;;;13.03;3.47;;;-3.20;98.00;;;;;;5011923;28;20271;-85
2023/02/08 01:49:27;;;;;;;5.57;2.75;;;-3.20;98.00;;;;;;5013326;28;20477;-84
2023/02/08 01:51:59;;;;;;;5.45;3.50;;;-3.20;98.00;;;;;;5012617;28;20665;-84
2023/02/08 01:54:30;;;;;;;3.83;2.95;;;-3.30;98.00;;;;;;5013033;28;20692;-84
2023/02/08 01:56:57;;;;;;;7.55;2.72;;;-3.30;98.00;;;;;;5012545;28;20235;-84
2023/02/08 01:59:27;;;;;;;8.38;3.83;;;-3.40;98.00;;;;;;5013193;28;20204;-84
2023/02/08 02:01:56;;;;;;;4.65;2.30;;;-3.30;98.00;;;;;;5013112;28;20232;-84
2023/02/08 02:04:23;;;;;;;6.10;2.80;;;-3.40;98.00;;;;;;5012939;28;20209;-84
2023/02/08 02:06:56;;;;;;;1.85;1.58;;;-3.40;98.00;;;;;;5012298;28;20656;-84
2023/02/08 02:09:29;;;;;;;8.75;3.58;;;-3.40;98.00;;;;;;5012849;28;20210;-84
2023/02/08 02:11:56;;;;;;;7.70;3.15;;;-3.40;98.00;;;;;;5012604;28;20206;-84
2023/02/08 02:14:24;;;;;;;6.03;2.75;;;-3.40;98.00;;;;;;5012867;28;20673;-85
2023/02/08 02:16:51;;;;;;;6.03;3.10;;;-3.50;98.00;;;;;;5013072;28;20737;-84
2023/02/08 02:19:29;;;;;;;6.00;2.50;;;-3.70;98.00;;;;;;5012675;28;20201;-84
2023/02/08 02:22:07;;;;;;;4.45;3.30;;;-3.60;98.00;;;;;;5012455;28;20221;-84
2023/02/08 02:24:53;;;;;;;3.40;2.80;;;-3.60;98.00;;;;;;5013016;28;20635;-84
2023/02/08 02:27:31;;;;;;;11.07;3.50;;;-3.70;98.00;;;;;;5011813;28;20224;-84
2023/02/08 02:30:32;;;;;;;3.38;2.85;;;-3.50;98.00;;;;;;5012429;28;20205;-84
2023/02/08 02:33:23;;;;;;;3.60;2.88;;;-3.50;98.00;;;;;;5012314;28;20209;-84
2023/02/08 02:35:57;;;;;;;5.80;3.05;;;-3.70;98.00;;;;;;5011584;28;20228;-84
2023/02/08 02:38:34;;;;;;;1.80;1.73;;;-3.70;98.00;;;;;;5012738;28;20198;-84
2023/02/08 02:41:13;;;;;;;4.10;2.53;;;-3.60;98.00;;;;;;5012471;28;20291;-84
2023/02/08 02:43:45;;;;;;;2.97;2.47;;;-3.70;98.00;;;;;;5012199;28;20231;-84
2023/02/08 02:46:23;;;;;;;9.93;2.75;;;-3.60;98.00;;;;;;5012295;28;20227;-84
2023/02/08 02:48:59;;;;;;;21.02;3.55;;;-3.60;98.00;;;;;;5012689;28;20734;-84
2023/02/08 02:51:31;;;;;;;5.63;3.13;;;-3.50;98.00;;;;;;5012407;28;20216;-84
2023/02/08 02:54:03;;;;;;;3.72;2.22;;;-3.60;98.00;;;;;;5012295;28;20213;-84
2023/02/08 02:56:34;;;;;;;14.10;4.40;;;-3.60;98.00;;;;;;5011546;28;20224;-84
2023/02/08 02:59:05;;;;;;;2.40;2.08;;;-3.50;98.00;;;;;;5012730;28;20250;-85
2023/02/08 03:01:32;;;;;;;4.65;3.22;;;-3.40;98.00;;;;;;5014690;28;20236;-84
2023/02/08 03:04:01;;;;;;;3.15;2.83;;;-3.50;98.00;;;;;;5015123;28;20209;-84
2023/02/08 03:06:42;;;;;;;14.88;3.35;;;-3.50;98.00;;;;;;5014446;28;20262;-84
2023/02/08 03:09:35;;;;;;;2.50;2.35;;;-3.50;98.00;;;;;;5016581;28;20642;-84
2023/02/08 03:12:12;;;;;;;5.37;2.60;;;-3.70;98.00;;;;;;5011277;28;20629;-84
2023/02/08 03:14:51;;;;;;;3.17;1.90;;;-3.70;98.00;;;;;;5015676;28;20453;-84
2023/02/08 03:17:40;;;;;;;2.95;2.65;;;-3.50;98.00;;;;;;5014949;28;20274;-84
2023/02/08 03:20:11;;;;;;;3.83;2.35;;;-3.50;98.00;;;;;;5015471;28;20204;-84
2023/02/08 03:22:45;;;;;;;2.92;2.55;;;-3.60;98.00;;;;;;5015529;28;20229;-84
2023/02/08 03:25:17;;;;;;;3.50;2.80;;;-3.50;98.00;;;;;;5015044;28;20208;-84
2023/02/08 03:27:54;;;;;;;5.05;3.25;;;-3.50;98.00;;;;;;5014586;28;20204;-84
2023/02/08 03:30:27;;;;;;;2.85;2.55;;;-3.50;98.00;;;;;;5013414;28;20211;-84
2023/02/08 03:32:59;;;;;;;4.97;2.67;;;-3.60;98.00;;;;;;5013394;28;20627;-84
2023/02/08 03:35:31;;;;;;;2.60;2.15;;;-3.80;98.00;;;;;;5013238;28;20236;-84
2023/02/08 03:38:01;;;;;;;6.47;3.00;;;-4.00;98.00;;;;;;5014126;28;20315;-84
2023/02/08 03:40:31;;;;;;;9.07;3.38;;;-4.00;98.00;;;;;;5013467;28;20205;-84
2023/02/08 03:43:03;;;;;;;4.20;3.33;;;-4.10;98.00;;;;;;5013289;28;20209;-84
2023/02/08 03:45:36;;;;;;;2.78;1.90;;;-4.00;98.00;;;;;;5013146;28;20238;-84
2023/02/08 03:48:08;;;;;;;6.22;3.47;;;-3.90;98.00;;;;;;5022133;28;20200;-84
2023/02/08 03:50:39;;;;;;;2.30;2.00;;;-3.90;98.00;;;;;;5031873;28;20200;-84
2023/02/08 03:53:08;;;;;;;4.30;3.45;;;-4.00;98.00;;;;;;5032489;28;20209;-84
2023/02/08 03:55:37;;;;;;;5.88;2.67;;;-4.00;98.00;;;;;;5031937;28;20228;-84
2023/02/08 03:58:10;;;;;;;4.38;2.85;;;-4.20;98.00;;;;;;5032267;28;20208;-84
2023/02/08 04:00:40;;;;;;;4.07;2.28;;;-4.10;98.00;;;;;;5032487;28;20212;-84
2023/02/08 04:03:15;;;;;;;6.68;3.28;;;-4.30;98.00;;;;;;5032338;28;20211;-84
2023/02/08 04:05:44;;;;;;;5.55;3.05;;;-4.10;98.00;;;;;;5031974;28;20254;-84
2023/02/08 04:08:11;;;;;;;5.65;2.10;;;-4.10;98.00;;;;;;5034915;28;20200;-84
2023/02/08 04:10:38;;;;;;;3.33;2.10;;;-4.10;98.00;;;;;;5036031;28;20293;-84
2023/02/08 04:13:05;;;;;;;15.45;4.25;;;-4.00;98.00;;;;;;5035917;28;20204;-84
2023/02/08 04:15:32;;;;;;;3.58;2.67;;;-4.00;98.00;;;;;;5034936;28;20228;-84
2023/02/08 04:17:59;;;;;;;2.67;2.55;;;-4.00;98.00;;;;;;5036475;28;20196;-84
2023/02/08 04:20:26;;;;;;;1.85;1.65;;;-4.00;98.00;;;;;;5036322;28;20268;-84
2023/02/08 04:22:55;;;;;;;4.05;3.50;;;-4.10;98.00;;;;;;5036251;28;20211;-84
2023/02/08 04:25:22;;;;;;;3.08;2.40;;;-4.30;98.00;;;;;;5034326;28;20274;-84
2023/02/08 04:27:49;;;;;;;4.90;3.67;;;-4.30;98.00;;;;;;5034862;28;20269;-84
2023/02/08 04:30:16;;;;;;;8.48;3.58;;;-4.50;98.00;;;;;;5034847;28;20220;-83
2023/02/08 04:32:43;;;;;;;2.85;2.50;;;-4.50;98.00;;;;;;5034697;28;20270;-83
2023/02/08 04:35:10;;;;;;;3.42;2.15;;;-4.50;98.00;;;;;;5034112;28;20273;-84
2023/02/08 04:37:37;;;;;;;5.38;2.25;;;-4.50;98.00;;;;;;5034495;28;20211;-84
2023/02/08 04:40:06;;;;;;;3.05;2.25;;;-4.60;98.00;;;;;;5033691;28;20211;-84
2023/02/08 04:42:33;;;;;;;4.50;2.97;;;-4.50;98.00;;;;;;5034073;28;20224;-84
2023/02/08 04:45:00;;;;;;;2.75;2.45;;;-4.50;98.00;;;;;;5034189;28;20208;-83
2023/02/08 04:47:27;;;;;;;2.30;2.10;;;-4.40;98.00;;;;;;5033590;28;20208;-83
2023/02/08 04:49:54;;;;;;;4.05;2.70;;;-4.40;98.00;;;;;;5034079;28;20302;-84
2023/02/08 04:52:21;;;;;;;3.15;2.25;;;-4.30;98.00;;;;;;5034243;28;20200;-83
2023/02/08 04:54:48;;;;;;;3.38;2.17;;;-4.20;98.00;;;;;;5033838;28;20254;-84
2023/02/08 04:57:16;;;;;;;3.85;2.88;;;-4.20;98.00;;;;;;5033103;28;20232;-84
2023/02/08 04:59:43;;;;;;;4.97;2.53;;;-4.10;98.00;;;;;;5034900;28;20667;-85
2023/02/08 05:02:10;;;;;;;3.90;2.55;;;-4.10;98.00;;;;;;5039526;28;20282;-84
2023/02/08 05:04:37;;;;;;;5.40;3.97;;;-4.30;98.00;;;;;;5039400;28;20200;-84
2023/02/08 05:07:04;;;;;;;3.00;2.47;;;-4.40;98.00;;;;;;5038064;28;20227;-84
2023/02/08 05:09:31;;;;;;;3.80;2.15;;;-4.30;98.00;;;;;;5037606;28;20200;-84
2023/02/08 05:11:58;;;;;;;2.80;2.58;;;-4.30;98.00;;;;;;5036766;28;20204;-84
2023/02/08 05:14:27;;;;;;;3.83;2.58;;;-4.30;98.00;;;;;;5037385;28;20208;-84
2023/02/08 05:16:54;;;;;;;2.22;1.90;;;-4.20;98.00;;;;;;5038074;28;20220;-84
2023/02/08 05:19:21;;;;;;;3.78;2.20;;;-4.20;98.00;;;;;;5039494;28;20207;-83
2023/02/08 05:21:48;;;;;;;2.92;2.63;;;-4.20;98.00;;;;;;5038618;28;20220;-84
2023/02/08 05:24:15;;;;;;;2.58;1.95;;;-4.30;98.00;;;;;;5043685;28;20224;-84
2023/02/08 05:26:42;;;;;;;7.10;3.60;;;-4.30;98.00;;;;;;5042492;28;20231;-84
2023/02/08 05:29:09;;;;;;;4.00;3.25;;;-4.40;98.00;;;;;;5039582;28;20204;-84
2023/02/08 05:31:38;;;;;;;4.78;3.25;;;-4.30;98.00;;;;;;5036473;28;20215;-84
2023/02/08 05:34:05;;;;;;;5.25;2.92;;;-4.40;98.00;;;;;;5036636;28;20204;-84
2023/02/08 05:36:31;;;;;;;5.18;2.80;;;-4.40;98.00;;;;;;5035278;28;20730;-84
2023/02/08 05:38:58;;;;;;;3.05;2.75;;;-4.50;98.00;;;;;;5036095;28;20213;-84
2023/02/08 05:41:25;;;;;;;3.10;2.08;;;-4.50;98.00;;;;;;5034890;28;20216;-84
2023/02/08 05:43:52;;;;;;;2.55;2.35;;;-4.60;98.00;;;;;;5035222;28;20824;-84
2023/02/08 05:46:19;;;;;;;4.80;2.75;;;-4.60;98.00;;;;;;5035060;28;20278;-84
2023/02/08 05:48:48;;;;;;;4.40;2.38;;;-4.60;98.00;;;;;;5035775;28;20262;-84
2023/02/08 05:51:15;;;;;;;6.50;3.00;;;-4.60;98.00;;;;;;5036182;28;20205;-84
2023/02/08 05:53:44;;;;;;;8.50;3.00;;;-4.50;98.00;;;;;;5035128;28;20550;-84
2023/02/08 05:56:11;;;;;;;3.92;2.95;;;-4.40;98.00;;;;;;5034668;28;20220;-84
2023/02/08 05:58:38;;;;;;;3.97;2.85;;;-4.40;98.00;;;;;;5034628;28;20249;-84
2023/02/08 06:01:09;;;;;;;2.75;2.55;;;-4.60;98.00;;;;;;5035330;28;20295;-84
2023/02/08 06:03:36;;;;;;;2.25;2.00;;;-4.60;98.00;;;;;;5035313;28;20283;-84
2023/02/08 06:06:05;;;;;;;3.20;2.70;;;-4.60;98.00;;;;;;5034664;28;20228;-84
2023/02/08 06:08:32;;;;;;;4.15;3.28;;;-4.60;98.00;;;;;;5035159;28;20208;-83
2023/02/08 06:10:59;;;;;;;3.20;2.67;;;-4.60;98.00;;;;;;5035036;28;20208;-84
2023/02/08 06:13:28;;;;;;;9.15;2.90;;;-4.60;98.00;;;;;;5034728;28;20725;-84
2023/02/08 06:15:55;;;;;;;5.68;3.47;;;-4.70;98.00;;;;;;5033835;28;20259;-83
2023/02/08 06:18:22;;;;;;;5.68;3.83;;;-4.60;98.00;;;;;;5035489;28;20667;-84
2023/02/08 06:20:52;;;;;;;3.08;2.50;;;-4.70;98.00;;;;;;5034834;28;20768;-83
2023/02/08 06:23:20;;;;;;;5.55;3.05;;;-4.60;98.00;;;;;;5034561;28;20225;-84
2023/02/08 06:25:47;;;;;;;4.53;2.50;;;-4.70;98.00;;;;;;5033414;28;20224;-84
2023/02/08 06:28:14;;;;;;;2.80;2.60;;;-4.60;98.00;;;;;;5034972;28;20211;-84
2023/02/08 06:30:41;;;;;;;7.13;2.40;;;-4.50;98.00;;;;;;5032903;28;20603;-84
2023/02/08 06:33:08;;;;;;;3.25;2.90;;;-4.60;98.00;;;;;;5034229;28;20207;-84
2023/02/08 06:35:35;;;;;;;6.97;2.78;;;-4.60;98.00;;;;;;5033650;28;20235;-84
2023/02/08 06:38:02;;;;;;;6.65;3.05;;;-4.60;98.00;;;;;;5034323;28;20212;-84
2023/02/08 06:40:31;;;;;;;3.78;2.60;;;-4.60;98.00;;;;;;5034795;28;20223;-84
2023/02/08 06:42:58;;;;;;;4.45;3.28;;;-4.50;98.00;;;;;;5034140;28;20228;-84
2023/02/08 06:45:25;;;;;;;4.00;3.28;;;-4.50;98.00;;;;;;5033244;28;20703;-84
2023/02/08 06:47:52;;;;;;;11.10;3.33;;;-4.40;98.00;;;;;;5033926;28;20216;-83
2023/02/08 06:50:19;;;;;;;8.27;3.42;;;-4.40;98.00;;;;;;5034183;28;20202;-83
2023/02/08 06:52:46;;;;;;;6.30;2.45;;;-4.30;98.00;;;;;;5034343;28;20212;-83
2023/02/08 06:55:13;;;;;;;3.63;3.47;;;-4.40;98.00;;;;;;5033657;28;20266;-83
2023/02/08 06:57:42;;;;;;;2.40;2.20;;;-4.50;98.00;;;;;;5033797;28;20204;-83
2023/02/08 07:00:10;;;;;;;4.13;2.65;;;-4.70;98.00;;;;;;5033780;28;20567;-83
2023/02/08 07:02:37;;;;;;;4.25;2.47;;;-4.80;98.00;;;;;;5032554;28;20240;-83
2023/02/08 07:05:04;;;;;;;5.20;2.47;;;-4.70;98.00;;;;;;5033587;28;20207;-83
2023/02/08 07:07:31;;;;;;;4.10;3.30;;;-4.70;98.00;;;;;;5034059;28;20208;-83
2023/02/08 07:09:58;;;;;;;2.92;2.70;;;-4.60;98.00;;;;;;5033647;28;20279;-83
2023/02/08 07:12:25;;;;;;;4.70;3.20;;;-4.60;98.00;;;;;;5034183;28;20250;-83
2023/02/08 07:14:54;;;;;;;3.97;2.22;;;-4.60;98.00;;;;;;5034344;28;20207;-83
2023/02/08 07:17:21;;;;;;;7.22;3.03;;;-4.60;98.00;;;;;;5031994;28;20347;-83
2023/02/08 07:19:48;;;;;;;7.63;4.13;;;-4.60;98.00;;;;;;5033519;28;20282;-83
2023/02/08 07:22:15;;;;;;;3.95;3.13;;;-4.80;98.00;;;;;;5033133;28;20224;-83
2023/02/08 07:24:43;;;;;;;11.63;4.22;;;-4.90;98.00;;;;;;5033636;28;20208;-83
2023/02/08 07:27:12;;;;;;;6.00;3.75;;;-4.80;98.00;;;;;;5033836;28;20212;-84
2023/02/08 07:29:39;;;;;;;5.40;3.38;;;-4.70;98.00;;;;;;5034902;28;20215;-83
2023/02/08 07:32:08;;;;;;;4.82;3.13;;;-4.70;98.00;;;;;;5033824;28;20211;-84
2023/02/08 07:34:39;;;;;;;2.95;2.25;;;-4.70;98.00;;;;;;5033717;28;20204;-83
2023/02/08 07:37:06;;;;;;;6.13;3.97;;;-4.60;98.00;;;;;;5033536;28;20599;-83
2023/02/08 07:39:33;;;;;;;4.13;3.00;;;-4.60;98.00;;;;;;5033544;28;20208;-84
2023/02/08 07:42:01;;;;;;;4.03;3.05;;;-4.40;98.00;;;;;;5037115;28;20255;-83
2023/02/08 07:44:28;;;;;;;4.20;3.45;;;-4.40;98.00;;;;;;5036646;28;20205;-83
2023/02/08 07:46:55;;;;;;;3.63;3.03;;;-4.30;98.00;;;;;;5035642;28;20311;-84
2023/02/08 07:49:23;;;;;;;3.40;2.50;;;-4.30;98.00;;;;;;5036573;28;20212;-84
2023/02/08 07:51:50;;;;;;;5.80;3.33;;;-4.30;98.00;;;;;;5036534;28;20659;-83
2023/02/08 07:54:17;;;;;;;3.65;2.65;;;-4.20;98.00;;;;;;5038896;28;20230;-84
2023/02/08 07:56:44;;;;;;;3.25;3.05;;;-4.20;98.00;;;;;;5036909;28;20284;-84
2023/02/08 07:59:13;;;;;;;4.53;2.85;;;-4.10;98.00;;;;;;5035174;28;20211;-85
2023/02/08 08:01:40;;;;;;;3.75;2.65;;;-4.10;98.00;;;;;;5035515;28;20212;-86
2023/02/08 08:04:07;;;;;;;3.75;2.67;;;-4.10;98.00;;;;;;5034963;28;20257;-85
2023/02/08 08:06:36;;;;;;;4.32;2.90;;;-4.10;98.00;;;;;;5033965;28;20228;-84
2023/02/08 08:09:04;;;;;;;4.15;2.92;;;-4.00;98.00;;;;;;5035729;28;20204;-85
2023/02/08 08:11:31;;;;;;;9.55;3.35;;;-3.90;98.00;;;;;;5035560;28;20242;-85
2023/02/08 08:13:58;;;;;;;2.85;2.67;;;-3.70;98.00;;;;;;5035274;28;20696;-85
2023/02/08 08:16:25;;;;;;;2.10;1.85;;;-3.40;98.00;;;;;;5035854;28;20219;-85
2023/02/08 08:18:52;;;;;;;3.05;2.75;;;-3.30;98.00;;;;;;5034577;28;20673;-85
2023/02/08 08:21:19;;;;;;;4.35;3.60;;;-3.20;98.00;;;;;;5034629;28;20212;-85
2023/02/08 08:23:48;;;;;;;2.95;1.92;;;-3.10;98.00;;;;;;5036617;28;20216;-84
2023/02/08 08:26:17;;;;;;;7.28;3.83;;;-2.90;98.00;;;;;;5035415;28;20287;-84
2023/02/08 08:28:45;;;;;;;8.98;3.70;;;-2.70;98.00;;;;;;5038436;28;20681;-84
2023/02/08 08:31:14;;;;;;;8.40;4.40;;;-2.50;98.00;;;;;;5037935;28;20201;-84
2023/02/08 08:33:41;;;;;;;2.47;2.25;;;-2.30;98.00;;;;;;5038006;28;20203;-84
2023/02/08 08:36:09;;;;;;;4.53;3.13;;;-2.20;98.00;;;;;;5036037;28;20244;-85
2023/02/08 08:38:37;;;;;;;5.40;3.38;;;-2.00;98.00;;;;;;5037204;28;20671;-84
2023/02/08 08:41:09;;;;;;;6.68;3.53;;;-2.00;98.00;;;;;;5038998;28;20531;-84
2023/02/08 08:43:36;;;;;;;3.60;2.95;;;-1.90;98.00;;;;;;5040193;28;20220;-85
2023/02/08 08:46:05;;;;;;;5.25;2.55;;;-1.70;98.00;;;;;;5039228;28;20314;-85
2023/02/08 08:48:33;;;;;;;5.38;3.35;;;-1.80;98.00;;;;;;5037368;28;20213;-85
2023/02/08 08:51:00;;;;;;;5.32;3.30;;;-1.80;98.00;;;;;;5034040;28;20208;-86
2023/02/08 08:53:27;;;;;;;6.90;3.43;;;-1.70;98.00;;;;;;5032814;28;20806;-86
2023/02/08 08:55:54;;;;;;;2.67;2.47;;;-1.70;98.00;;;;;;5031197;28;20485;-85
2023/02/08 08:58:22;;;;;;;9.30;3.73;;;-1.70;98.00;;;;;;5030726;28;20514;-85
2023/02/08 09:00:49;;;;;;;3.63;2.87;;;-1.50;98.00;;;;;;5035534;28;20454;-84
2023/02/08 09:03:17;;;;;;;6.10;2.30;;;-1.40;98.00;;;;;;5035576;28;20488;-84
2023/02/08 09:05:44;;;;;;;7.23;4.07;;;-1.20;98.00;;;;;;5034419;28;20561;-84
2023/02/08 09:08:12;;;;;;;3.20;2.40;;;-1.20;98.00;;;;;;5029791;28;20596;-85
2023/02/08 09:10:39;;;;;;;7.77;3.60;;;-0.90;98.00;;;;;;5034772;28;20480;-85
2023/02/08 09:13:06;;;;;;;4.87;3.43;;;-0.30;98.00;;;;;;5034326;28;20505;-85
2023/02/08 09:15:38;;;;;;;4.80;3.60;;;-0.20;98.00;;;;;;5033858;28;20551;-85
2023/02/08 09:18:06;;;;;;;7.90;4.00;;;-0.20;98.00;;;;;;5036987;28;20600;-85
2023/02/08 09:20:33;;;;;;;4.53;2.57;;;-0.10;98.00;;;;;;5038825;28;20465;-85
2023/02/08 09:23:00;;;;;;;7.37;4.17;;;0.00;98.00;;;;;;5048878;28;20470;-86
2023/02/08 09:25:27;;;;;;;4.80;3.07;;;0.10;98.00;;;;;;5045973;28;20519;-85
2023/02/08 09:27:54;;;;;;;6.70;3.50;;;0.10;98.00;;;;;;5034482;28;20467;-85
2023/02/08 09:30:21;;;;;;;7.30;3.23;;;0.10;98.00;;;;;;5033965;28;20478;-85
2023/02/08 09:32:50;;;;;;;9.97;3.67;;;0.20;98.00;;;;;;5034021;28;20461;-85
2023/02/08 09:35:17;;;;;;;10.87;4.03;;;0.30;98.00;;;;;;5031919;28;20497;-86
2023/02/08 09:37:44;;;;;;;8.53;3.50;;;0.40;98.00;;;;;;5032678;28;20477;-85
2023/02/08 09:40:22;;;;;;;3.53;2.90;;;0.30;98.00;;;;;;5034139;28;20557;-86
2023/02/08 09:42:58;;;;;;;9.50;3.97;;;0.30;98.00;;;;;;5032620;28;20488;-85
2023/02/08 09:45:39;;;;;;;3.73;3.10;;;0.40;98.00;;;;;;5030831;28;20572;-85
2023/02/08 09:48:18;;;;;;;8.73;4.40;;;0.40;98.00;;;;;;5031731;28;20815;-85
2023/02/08 09:50:47;;;;;;;3.73;2.33;;;0.60;98.00;;;;;;5031704;28;20472;-86
2023/02/08 09:53:20;;;;;;;5.50;2.53;;;0.70;98.00;;;;;;5031583;28;20455;-85
2023/02/08 09:55:51;;;;;;;6.77;3.70;;;0.80;98.00;;;;;;5030838;28;20478;-85
2023/02/08 09:58:25;;;;;;;2.70;2.20;;;0.90;98.00;;;;;;5032223;28;20831;-85
2023/02/08 10:00:53;;;;;;;7.17;3.07;;;1.00;98.00;;;;;;5032124;28;20462;-86
2023/02/08 10:03:37;;;;;;;3.57;2.53;;;1.10;98.00;;;;;;5030216;28;20487;-86
2023/02/08 10:06:06;;;;;;;4.50;4.03;;;1.10;98.00;;;;;;5014267;28;20479;-86
2023/02/08 10:08:36;;;;;;;7.23;3.20;;;1.20;98.00;;;;;;5020979;28;20459;-87
2023/02/08 10:11:20;;;;;;;5.67;2.87;;;1.30;98.00;;;;;;5019629;28;20910;-85
2023/02/08 10:14:18;;;;;;;4.57;2.70;;;1.50;98.00;;;;;;5013661;28;20486;-86
2023/02/08 10:17:03;;;;;;;4.37;2.80;;;1.60;98.00;;;;;;5012511;28;20549;-85
2023/02/08 10:19:43;;;;;;;6.37;3.30;;;1.70;98.00;;;;;;5013210;28;20483;-85
2023/02/08 10:22:24;;;;;;;4.53;3.00;;;1.90;98.00;;;;;;5013201;28;20524;-85
2023/02/08 10:25:48;;;;;;;6.13;3.63;;;2.00;98.00;;;;;;5012651;28;20452;-85
2023/02/08 10:28:47;;;;;;;4.47;2.50;;;2.10;98.00;;;;;;5011657;28;20550;-84
2023/02/08 10:31:55;;;;;;;2.30;2.10;;;2.40;98.00;;;;;;5015998;28;20966;-86
2023/02/08 10:34:32;;;;;;;4.20;2.40;;;2.50;97.60;;;;;;5012963;28;20463;-86
2023/02/08 10:37:07;;;;;;;5.77;3.00;;;2.60;97.30;;;;;;5011751;28;20496;-86
2023/02/08 10:39:36;;;;;;;3.23;2.03;;;2.80;96.90;;;;;;5012886;28;20459;-85
2023/02/08 10:42:09;;;;;;;2.93;2.33;;;3.00;96.30;;;;;;5012622;28;20458;-85
2023/02/08 10:44:55;;;;;;;3.37;2.40;;;3.10;95.40;;;;;;5012340;28;20476;-85
2023/02/08 10:47:36;;;;;;;4.57;2.23;;;3.20;95.20;;;;;;5011482;28;21017;-85
2023/02/08 10:50:09;;;;;;;3.40;2.10;;;3.40;94.50;;;;;;5012396;28;20550;-86
2023/02/08 10:52:37;;;;;;;4.67;2.43;;;3.60;93.20;;;;;;5012321;28;20456;-85
2023/02/08 10:55:13;;;;;;;2.97;2.10;;;3.60;93.90;;;;;;5012096;28;20460;-86
2023/02/08 10:57:41;;;;;;;6.20;2.50;;;3.80;93.60;;;;;;5015039;28;20580;-86
2023/02/08 11:00:13;;;;;;;7.90;3.43;;;3.90;93.40;;;;;;5022341;28;20556;-86
2023/02/08 11:02:42;;;;;;;2.90;1.93;;;4.10;92.80;;;;;;5025907;28;20806;-85
2023/02/08 11:05:11;;;;;;;4.50;2.10;;;4.20;92.70;;;;;;5030878;28;20468;-85
2023/02/08 11:07:41;;;;;;;2.73;1.83;;;4.20;92.90;;;;;;5031095;28;20490;-85
2023/02/08 11:10:29;;;;;;;9.23;2.50;;;4.30;93.10;;;;;;5032740;28;20524;-85
2023/02/08 11:12:59;;;;;;;6.73;2.80;;;4.40;92.40;;;;;;5028578;28;20518;-85
2023/02/08 11:15:31;;;;;;;4.23;2.70;;;4.60;92.60;;;;;;5031824;28;20484;-85
2023/02/08 11:18:01;;;;;;;5.27;1.83;;;4.80;92.20;;;;;;5036595;28;20456;-85
2023/02/08 11:20:35;;;;;;;2.50;2.13;;;5.00;91.00;;;;;;5036787;28;20444;-85
2023/02/08 11:23:05;;;;;;;5.87;2.80;;;5.10;90.80;;;;;;5035516;28;20480;-85
2023/02/08 11:25:36;;;;;;;3.00;1.90;;;5.30;91.10;;;;;;5035570;28;20487;-84
2023/02/08 11:28:04;;;;;;;7.77;2.90;;;5.40;89.30;;;;;;5035538;28;20500;-85
2023/02/08 11:30:32;;;;;;;6.97;2.37;;;5.50;89.60;;;;;;5036741;28;20451;-85
2023/02/08 11:33:17;;;;;;;5.30;2.03;;;5.70;88.70;;;;;;5036590;28;20556;-85
2023/02/08 11:36:10;;;;;;;1.77;1.70;;;5.90;88.50;;;;;;5035189;28;20596;-86
2023/02/08 11:38:43;;;;;;;5.20;2.33;;;6.00;87.70;;;;;;5035313;28;20467;-85
2023/02/08 11:41:17;;;;;;;5.40;1.63;;;6.30;88.00;;;;;;5035346;28;20455;-85
2023/02/08 11:43:59;;;;;;;5.10;2.23;;;6.60;87.80;;;;;;5035177;28;20474;-85
2023/02/08 11:46:29;;;;;;;5.10;2.73;;;6.80;86.20;;;;;;5034993;28;20503;-85
2023/02/08 11:48:56;;;;;;;5.80;2.60;;;7.10;85.90;;;;;;5034829;28;20962;-85
2023/02/08 11:51:27;;;;;;;5.77;2.50;;;7.40;84.80;;;;;;5035136;28;20974;-85
2023/02/08 11:54:40;;;;;;;6.07;2.87;;;7.60;85.20;;;;;;5035694;28;20459;-85
2023/02/08 12:00:38;;;;;;;5.77;2.53;;;8.10;83.90;;;;;;5026131;28;20455;-85
2023/02/08 12:06:08;;;;;;;4.73;2.40;;;8.30;82.70;;;;;;5031274;28;20603;-85
2023/02/08 12:08:43;;;;;;;5.13;2.60;;;8.50;82.60;;;;;;5035102;28;20448;-85
2023/02/08 12:11:24;;;;;;;2.80;2.13;;;8.70;81.60;;;;;;5034259;28;20500;-86
2023/02/08 12:14:05;;;;;;;5.40;3.17;;;8.80;80.90;;;;;;5034096;28;20533;-85
2023/02/08 12:16:52;;;;;;;5.00;2.60;;;8.90;81.30;;;;;;5033861;28;20480;-85
2023/02/08 12:19:58;;;;;;;2.93;2.03;;;9.00;81.10;;;;;;5033989;28;20520;-85
2023/02/08 12:22:27;;;;;;;3.57;2.70;;;9.20;81.30;;;;;;5033319;28;20470;-85
2023/02/08 12:25:04;;;;;;;3.97;2.10;;;9.40;79.80;;;;;;5035564;28;20492;-87
2023/02/08 12:27:41;;;;;;;4.80;2.57;;;9.50;80.70;;;;;;5037093;28;20477;-86
2023/02/08 12:30:19;;;;;;;6.17;2.37;;;9.50;80.20;;;;;;5033538;28;20515;-85
2023/02/08 12:33:14;;;;;;;3.47;2.40;;;9.40;79.90;;;;;;5033713;28;20475;-86
2023/02/08 12:36:06;;;;;;;8.00;2.83;;;9.60;79.00;;;;;;5033098;28;20492;-86
2023/02/08 12:41:45;;;;;;;6.57;2.20;;;10.10;79.00;;;;;;5034303;28;20452;-85
2023/02/08 12:57:32;;;;;;;4.60;3.13;;;10.60;78.70;;;;;;5058995;23;20489;-68
2023/02/08 13:00:05;;;;;;;6.87;3.23;;;10.60;78.00;;;;;;5052823;28;20552;-66
2023/02/08 13:02:42;;;;;;;8.43;3.40;;;10.60;79.10;;;;;;5053174;28;20504;-66
2023/02/08 13:05:16;;;;;;;9.27;3.53;;;10.70;77.90;;;;;;5053040;28;20577;-68
2023/02/08 13:07:46;;;;;;;7.83;3.13;;;10.70;77.60;;;;;;5034431;28;20507;-67
2023/02/08 13:10:26;;;;;;;5.97;3.00;;;10.80;77.50;;;;;;5032842;28;20463;-68
2023/02/08 13:12:56;;;;;;;7.07;3.37;;;11.00;77.70;;;;;;5032508;28;20461;-68
2023/02/08 13:15:31;;;;;;;6.43;3.27;;;11.00;77.60;;;;;;5032564;28;20511;-67
2023/02/08 13:18:01;;;;;;;7.17;3.53;;;11.10;77.30;;;;;;5032830;28;20461;-68
2023/02/08 13:20:38;;;;;;;7.73;2.77;;;11.20;77.30;;;;;;5032792;28;20823;-67
2023/02/08 13:23:15;;;;;;;7.27;3.53;;;11.10;77.40;;;;;;5032307;28;20557;-66
2023/02/08 13:25:43;;;;;;;6.67;3.47;;;11.10;77.20;;;;;;5032488;28;20468;-66
2023/02/08 13:28:19;;;;;;;7.47;3.23;;;11.00;77.30;;;;;;5031004;28;20864;-66
2023/02/08 13:30:58;;;;;;;9.17;3.20;;;11.10;77.50;;;;;;5032487;28;20462;-66